createdAt,value
2022-07-27T05:02:35.367Z,100.00
2022-07-27T05:05:03.155Z,100.00
2022-07-27T05:07:31.547Z,100.00
2022-07-27T05:09:59.259Z,100.00
2022-07-27T05:12:26.963Z,100.00
2022-07-27T05:14:54.728Z,100.00
2022-07-27T05:17:22.462Z,100.00
2022-07-27T05:19:51.589Z,100.00
2022-07-27T05:22:21.895Z,100.00
2022-07-27T05:24:49.589Z,100.00
2022-07-27T05:27:17.316Z,100.00
2022-07-27T05:29:45.090Z,100.00
2022-07-27T05:32:13.012Z,100.00
2022-07-27T05:34:42.042Z,100.00
2022-07-27T05:37:11.150Z,100.00
2022-07-27T05:39:42.178Z,100.00
2022-07-27T05:42:10.596Z,100.00
2022-07-27T05:44:38.374Z,100.00
2022-07-27T05:47:06.630Z,100.00
2022-07-27T05:49:34.768Z,100.00
2022-07-27T05:52:02.546Z,100.00
2022-07-27T05:54:31.746Z,100.00
2022-07-27T05:56:59.481Z,100.00
2022-07-27T05:59:28.087Z,100.00
2022-07-27T06:01:55.915Z,100.00
2022-07-27T06:04:23.665Z,100.00
2022-07-27T06:07:09.026Z,100.00
2022-07-27T06:09:38.162Z,100.00
2022-07-27T06:12:06.582Z,100.00
2022-07-27T06:14:34.319Z,100.00
2022-07-27T06:17:02.130Z,100.00
2022-07-27T06:19:36.195Z,100.00
2022-07-27T06:22:04.637Z,100.00
2022-07-27T06:24:32.424Z,100.00
2022-07-27T06:27:01.575Z,100.00
2022-07-27T06:29:29.821Z,100.00
2022-07-27T06:31:57.540Z,100.00
2022-07-27T06:34:25.433Z,100.00
2022-07-27T06:36:53.430Z,100.00
2022-07-27T06:39:21.379Z,100.00
2022-07-27T06:41:49.171Z,100.00
2022-07-27T06:44:18.321Z,100.00
2022-07-27T06:46:46.091Z,100.00
2022-07-27T06:49:14.413Z,100.00
2022-07-27T06:51:42.673Z,100.00
2022-07-27T06:54:11.632Z,100.00
2022-07-27T06:56:39.380Z,100.00
2022-07-27T06:59:07.200Z,100.00
2022-07-27T07:01:36.667Z,100.00
2022-07-27T07:04:04.758Z,100.00
2022-07-27T07:06:32.519Z,100.00
2022-07-27T07:09:00.516Z,100.00
2022-07-27T07:11:28.314Z,100.00
2022-07-27T07:13:56.062Z,100.00
2022-07-27T07:16:23.891Z,100.00
2022-07-27T07:18:53.024Z,100.00
2022-07-27T07:21:20.786Z,100.00
2022-07-27T07:23:48.559Z,100.00
2022-07-27T07:26:16.356Z,100.00
2022-07-27T07:28:44.159Z,100.00
2022-07-27T07:31:12.099Z,100.00
2022-07-27T07:33:39.836Z,100.00
2022-07-27T07:36:13.591Z,100.00
2022-07-27T07:38:42.709Z,100.00
2022-07-27T07:41:10.527Z,100.00
2022-07-27T07:43:38.793Z,100.00
2022-07-27T07:46:06.962Z,100.00
2022-07-27T07:48:34.835Z,100.00
2022-07-27T07:51:03.835Z,100.00
2022-07-27T07:53:35.539Z,100.00
2022-07-27T07:56:07.080Z,100.00
2022-07-27T07:58:34.912Z,100.00
2022-07-27T08:01:02.638Z,100.00
2022-07-27T08:03:30.538Z,100.00
2022-07-27T08:05:58.439Z,100.00
2022-07-27T08:08:27.784Z,100.00
2022-07-27T08:10:57.117Z,100.00
2022-07-27T08:13:24.967Z,100.00
2022-07-27T08:15:53.423Z,100.00
2022-07-27T08:18:22.042Z,100.00
2022-07-27T08:20:50.406Z,100.00
2022-07-27T08:23:18.229Z,100.00
2022-07-27T08:25:46.008Z,100.00
2022-07-27T08:28:15.385Z,100.00
2022-07-27T08:30:43.886Z,100.00
2022-07-27T08:33:11.737Z,100.00
2022-07-27T08:35:39.881Z,100.00
2022-07-27T08:38:10.093Z,100.00
2022-07-27T08:40:40.998Z,100.00
2022-07-27T08:43:21.505Z,100.00
2022-07-27T08:45:58.990Z,100.00
2022-07-27T08:48:28.850Z,100.00
2022-07-27T08:50:57.404Z,100.00
2022-07-27T08:53:25.937Z,100.00
2022-07-27T08:56:02.769Z,100.00
2022-07-27T08:58:30.887Z,100.00
2022-07-27T09:01:01.883Z,100.00
2022-07-27T09:03:29.666Z,100.00
2022-07-27T09:05:58.453Z,100.00
2022-07-27T09:08:30.926Z,100.00
2022-07-27T09:11:00.215Z,100.00
2022-07-27T09:13:29.784Z,100.00
2022-07-27T09:18:49.148Z,100.00
2022-07-27T09:21:18.741Z,100.00
2022-07-27T09:23:48.517Z,100.00
2022-07-27T09:26:31.930Z,100.00
2022-07-27T09:29:03.625Z,100.00
2022-07-27T09:31:32.224Z,90.43
2022-07-27T09:34:03.120Z,91.08
2022-07-27T09:36:31.733Z,86.89
2022-07-27T09:39:03.321Z,96.13
2022-07-27T09:41:42.541Z,87.96
2022-07-27T09:46:58.889Z,76.58
2022-07-27T09:49:30.332Z,75.10
2022-07-27T09:52:01.051Z,73.72
2022-07-27T09:54:42.044Z,72.90
2022-07-27T09:57:10.613Z,74.51
2022-07-27T09:59:40.172Z,81.62
2022-07-27T10:02:08.695Z,67.69
2022-07-27T10:04:37.968Z,76.43
2022-07-27T10:07:10.625Z,68.83
2022-07-27T10:09:40.969Z,71.99
2022-07-27T10:12:09.750Z,65.31
2022-07-27T10:14:37.531Z,75.30
2022-07-27T10:17:06.900Z,69.99
2022-07-27T10:19:45.976Z,75.56
2022-07-27T10:22:14.419Z,80.48
2022-07-27T10:24:42.297Z,78.03
2022-07-27T10:27:21.179Z,75.86
2022-07-27T10:29:50.861Z,74.26
2022-07-27T10:32:24.942Z,72.79
2022-07-27T10:34:54.420Z,73.71
2022-07-27T10:37:27.345Z,78.26
2022-07-27T10:40:17.046Z,66.37
2022-07-27T10:42:50.427Z,67.04
2022-07-27T10:45:22.535Z,71.08
2022-07-27T10:47:53.155Z,68.97
2022-07-27T10:50:33.346Z,73.28
2022-07-27T10:53:07.180Z,65.73
2022-07-27T10:55:51.564Z,65.40
2022-07-27T10:58:45.701Z,63.87
2022-07-27T11:01:16.652Z,63.53
2022-07-27T11:03:52.309Z,59.44
2022-07-27T11:06:41.868Z,65.91
2022-07-27T11:12:09.931Z,56.47
2022-07-27T11:14:46.443Z,56.88
2022-07-27T11:17:48.732Z,57.26
2022-07-27T11:20:03.836Z,58.40
2022-07-27T11:25:23.406Z,61.29
2022-07-27T11:27:52.413Z,61.02
2022-07-27T11:30:24.633Z,62.85
2022-07-27T11:32:52.565Z,60.04
2022-07-27T11:35:20.611Z,59.76
2022-07-27T11:38:03.775Z,61.74
2022-07-27T11:41:12.898Z,65.07
2022-07-27T11:43:40.423Z,66.78
2022-07-27T11:46:18.652Z,65.77
2022-07-27T11:49:10.850Z,58.60
2022-07-27T11:51:42.049Z,60.15
2022-07-27T11:54:12.896Z,60.13
2022-07-27T11:56:43.862Z,63.03
2022-07-27T11:59:14.873Z,69.13
2022-07-27T12:01:48.389Z,63.35
2022-07-27T12:04:22.588Z,66.27
2022-07-27T12:07:01.625Z,65.58
2022-07-27T12:09:36.769Z,62.82
2022-07-27T12:12:15.015Z,61.75
2022-07-27T12:14:45.878Z,60.27
2022-07-27T12:17:32.351Z,64.89
2022-07-27T12:20:03.067Z,60.18
2022-07-27T12:22:34.125Z,65.17
2022-07-27T12:25:16.135Z,62.87
2022-07-27T12:27:55.367Z,60.19
2022-07-27T12:30:31.338Z,59.57
2022-07-27T12:32:59.990Z,56.68
2022-07-27T12:35:35.926Z,56.59
2022-07-27T12:38:06.911Z,54.46
2022-07-27T12:40:44.144Z,56.08
2022-07-27T12:43:15.381Z,55.82
2022-07-27T12:45:43.689Z,56.37
2022-07-27T12:48:14.305Z,56.61
2022-07-27T12:50:44.515Z,61.31
2022-07-27T12:53:13.899Z,58.26
2022-07-27T12:55:44.562Z,58.06
2022-07-27T12:58:14.266Z,59.54
2022-07-27T13:00:42.443Z,58.38
2022-07-27T13:03:10.513Z,58.90
2022-07-27T13:05:38.309Z,61.59
2022-07-27T13:08:07.032Z,59.56
2022-07-27T13:10:36.397Z,60.41
2022-07-27T13:13:07.090Z,60.63
2022-07-27T13:15:35.451Z,65.32
2022-07-27T13:18:03.754Z,65.00
2022-07-27T13:20:31.893Z,70.08
2022-07-27T13:22:59.672Z,66.49
2022-07-27T13:25:27.456Z,63.00
2022-07-27T13:27:55.185Z,61.23
2022-07-27T13:30:25.018Z,64.16
2022-07-27T13:32:52.944Z,66.10
2022-07-27T13:35:20.724Z,64.31
2022-07-27T13:37:48.496Z,63.32
2022-07-27T13:40:16.911Z,67.21
2022-07-27T13:42:44.870Z,69.72
2022-07-27T13:45:13.101Z,64.73
2022-07-27T13:47:42.579Z,65.69
2022-07-27T13:50:19.017Z,65.03
2022-07-27T13:52:48.416Z,64.71
2022-07-27T13:55:17.116Z,65.40
2022-07-27T13:57:45.524Z,60.63
2022-07-27T14:00:14.742Z,63.84
2022-07-27T14:02:44.090Z,63.18
2022-07-27T14:05:14.460Z,64.21
2022-07-27T14:07:43.566Z,63.19
2022-07-27T14:10:30.545Z,61.54
2022-07-27T14:12:59.480Z,57.00
2022-07-27T14:15:27.906Z,57.42
2022-07-27T14:17:57.276Z,58.74
2022-07-27T14:20:25.535Z,59.13
2022-07-27T14:22:53.288Z,61.52
2022-07-27T14:25:21.097Z,62.54
2022-07-27T14:27:48.868Z,55.56
2022-07-27T14:30:20.790Z,61.55
2022-07-27T14:32:49.275Z,58.85
2022-07-27T14:35:18.801Z,59.17
2022-07-27T14:37:46.818Z,58.83
2022-07-27T14:40:15.762Z,58.59
2022-07-27T14:42:43.536Z,56.50
2022-07-27T14:45:12.648Z,56.93
2022-07-27T14:47:40.365Z,59.42
2022-07-27T14:50:09.619Z,61.68
2022-07-27T14:52:39.033Z,60.13
2022-07-27T14:55:08.005Z,61.32
2022-07-27T14:57:35.899Z,62.35
2022-07-27T15:00:10.052Z,62.77
2022-07-27T15:02:38.528Z,61.97
2022-07-27T15:05:07.777Z,63.20
2022-07-27T15:07:36.451Z,64.10
2022-07-27T15:10:08.998Z,61.87
2022-07-27T15:12:38.066Z,62.98
2022-07-27T15:15:07.864Z,61.09
2022-07-27T15:17:37.729Z,62.14
2022-07-27T15:20:07.978Z,59.23
2022-07-27T15:22:35.774Z,58.61
2022-07-27T15:25:05.078Z,57.46
2022-07-27T15:27:32.952Z,59.59
2022-07-27T15:30:00.741Z,57.97
2022-07-27T15:32:28.466Z,59.71
2022-07-27T15:34:57.696Z,60.29
2022-07-27T15:37:25.468Z,60.86
2022-07-27T15:39:53.275Z,65.47
2022-07-27T15:42:22.867Z,66.21
2022-07-27T15:44:50.604Z,66.73
2022-07-27T15:47:18.329Z,66.35
2022-07-27T15:49:46.072Z,63.59
2022-07-27T15:52:13.813Z,64.52
2022-07-27T15:54:45.449Z,67.92
2022-07-27T15:57:13.554Z,65.79
2022-07-27T15:59:42.654Z,63.64
2022-07-27T16:02:10.384Z,68.52
2022-07-27T16:04:38.384Z,69.45
2022-07-27T16:07:06.448Z,70.22
2022-07-27T16:09:34.383Z,69.60
2022-07-27T16:12:02.165Z,72.53
2022-07-27T16:14:29.949Z,74.88
2022-07-27T16:17:00.208Z,68.25
2022-07-27T16:19:28.032Z,71.94
2022-07-27T16:21:56.087Z,68.62
2022-07-27T16:24:25.131Z,73.35
2022-07-27T16:26:53.342Z,73.94
2022-07-27T16:29:21.115Z,70.38
2022-07-27T16:31:49.004Z,66.65
2022-07-27T16:34:18.180Z,66.32
2022-07-27T16:36:45.891Z,75.63
2022-07-27T16:39:13.919Z,67.71
2022-07-27T16:41:41.996Z,68.71
2022-07-27T16:44:09.712Z,65.39
2022-07-27T16:46:37.800Z,67.82
2022-07-27T16:49:05.656Z,68.98
2022-07-27T16:51:35.412Z,70.79
2022-07-27T16:54:03.255Z,75.74
2022-07-27T16:56:31.041Z,72.67
2022-07-27T16:58:58.834Z,72.58
2022-07-27T17:01:28.849Z,69.33
2022-07-27T17:03:57.215Z,64.59
2022-07-27T17:06:26.007Z,68.02
2022-07-27T17:08:55.796Z,72.59
2022-07-27T17:11:23.747Z,76.60
2022-07-27T17:13:59.095Z,77.03
2022-07-27T17:16:28.644Z,77.40
2022-07-27T17:18:56.710Z,78.45
2022-07-27T17:21:24.439Z,74.62
2022-07-27T17:23:52.222Z,73.89
2022-07-27T17:26:22.786Z,74.41
2022-07-27T17:28:53.346Z,75.50
2022-07-27T17:33:49.531Z,62.96
2022-07-27T17:36:17.506Z,68.68
2022-07-27T17:39:50.694Z,79.25
2022-07-27T17:42:18.427Z,77.40
2022-07-27T17:44:46.188Z,95.09
2022-07-27T17:47:13.908Z,100.00
2022-07-27T17:49:43.678Z,90.98
2022-07-27T17:52:11.448Z,97.83
2022-07-27T17:54:39.946Z,82.10
2022-07-27T17:57:09.492Z,91.67
2022-07-27T17:59:38.397Z,100.00
2022-07-27T18:02:06.632Z,100.00
2022-07-27T18:04:39.114Z,100.00
2022-07-27T18:07:07.320Z,100.00
2022-07-27T18:09:35.093Z,100.00
2022-07-27T18:12:02.837Z,100.00
2022-07-27T18:14:32.087Z,100.00
2022-07-27T18:17:00.904Z,100.00
2022-07-27T18:19:29.489Z,100.00
2022-07-27T18:21:57.338Z,100.00
2022-07-27T18:24:25.044Z,100.00
2022-07-27T18:26:55.073Z,100.00
2022-07-27T18:29:22.914Z,100.00
2022-07-27T18:31:51.982Z,100.00
2022-07-27T18:34:19.698Z,100.00
2022-07-27T18:36:47.404Z,100.00
2022-07-27T18:39:15.583Z,100.00
2022-07-27T18:41:43.705Z,100.00
2022-07-27T18:44:11.404Z,100.00
2022-07-27T18:46:39.553Z,100.00
2022-07-27T18:49:10.014Z,100.00
2022-07-27T18:51:41.961Z,100.00
2022-07-27T18:54:09.767Z,100.00
2022-07-27T18:56:39.529Z,100.00
2022-07-27T18:59:07.413Z,100.00
2022-07-27T19:01:35.199Z,100.00
2022-07-27T19:04:02.995Z,100.00
2022-07-27T19:06:32.596Z,100.00
2022-07-27T19:09:00.395Z,100.00
2022-07-27T19:11:28.149Z,100.00
2022-07-27T19:13:57.794Z,100.00
2022-07-27T19:16:26.174Z,100.00
2022-07-27T19:18:53.992Z,100.00
2022-07-27T19:21:21.725Z,100.00
2022-07-27T19:23:50.872Z,100.00
2022-07-27T19:26:18.586Z,100.00
2022-07-27T19:28:46.562Z,100.00
2022-07-27T19:31:23.132Z,100.00
2022-07-27T19:33:52.111Z,100.00
2022-07-27T19:36:20.345Z,100.00
2022-07-27T19:38:48.110Z,100.00
2022-07-27T19:41:17.307Z,100.00
2022-07-27T19:43:45.186Z,100.00
2022-07-27T19:46:13.092Z,100.00
2022-07-27T19:48:40.975Z,100.00
2022-07-27T19:51:08.752Z,100.00
2022-07-27T19:53:36.570Z,100.00
2022-07-27T19:56:04.425Z,100.00
2022-07-27T19:58:33.554Z,100.00
2022-07-27T20:01:01.454Z,100.00
2022-07-27T20:03:29.310Z,100.00
2022-07-27T20:05:57.303Z,100.00
2022-07-27T20:08:25.073Z,100.00
2022-07-27T20:10:52.830Z,100.00
2022-07-27T20:13:20.533Z,100.00
2022-07-27T20:15:49.678Z,100.00
2022-07-27T20:18:17.442Z,100.00
2022-07-27T20:20:45.214Z,100.00
2022-07-27T20:23:12.920Z,100.00
2022-07-27T20:25:42.084Z,100.00
2022-07-27T20:28:09.791Z,100.00
2022-07-27T20:30:37.625Z,100.00
2022-07-27T20:33:06.804Z,100.00
2022-07-27T20:35:37.816Z,100.00
2022-07-27T20:38:05.865Z,100.00
2022-07-27T20:40:33.562Z,100.00
2022-07-27T20:43:01.280Z,100.00
2022-07-27T20:45:29.215Z,100.00
2022-07-27T20:47:57.218Z,100.00
2022-07-27T20:50:26.567Z,100.00
2022-07-27T20:52:54.329Z,100.00
2022-07-27T20:55:22.105Z,100.00
2022-07-27T20:57:49.831Z,100.00
2022-07-27T21:00:19.245Z,100.00
2022-07-27T21:02:48.342Z,100.00
2022-07-27T21:05:16.106Z,100.00
2022-07-27T21:07:46.515Z,100.00
2022-07-27T21:10:14.613Z,100.00
2022-07-27T21:12:42.422Z,100.00
2022-07-27T21:15:13.407Z,100.00
2022-07-27T21:17:41.857Z,100.00
2022-07-27T21:20:11.057Z,100.00
2022-07-27T21:22:38.813Z,100.00
2022-07-27T21:25:08.666Z,100.00
2022-07-27T21:27:36.513Z,100.00
2022-07-27T21:30:07.439Z,100.00
2022-07-27T21:32:35.126Z,100.00
2022-07-27T21:35:06.858Z,100.00
2022-07-27T21:37:35.252Z,100.00
2022-07-27T21:40:03.006Z,100.00
2022-07-27T21:42:33.007Z,100.00
2022-07-27T21:45:00.721Z,100.00
2022-07-27T21:47:28.500Z,100.00
2022-07-27T21:49:56.214Z,100.00
2022-07-27T21:52:23.897Z,100.00
2022-07-27T21:54:51.631Z,100.00
2022-07-27T21:57:19.375Z,100.00
2022-07-27T21:59:48.478Z,100.00
2022-07-27T22:02:16.223Z,100.00
2022-07-27T22:04:43.997Z,100.00
2022-07-27T22:07:16.779Z,100.00
2022-07-27T22:09:47.266Z,100.00
2022-07-27T22:12:15.073Z,100.00
2022-07-27T22:14:42.811Z,100.00
2022-07-27T22:17:11.911Z,100.00
2022-07-27T22:19:39.753Z,100.00
2022-07-27T22:22:07.528Z,100.00
2022-07-27T22:24:35.223Z,100.00
2022-07-27T22:27:02.950Z,100.00
2022-07-27T22:29:30.611Z,100.00
2022-07-27T22:31:58.387Z,100.00
2022-07-27T22:34:27.663Z,100.00
2022-07-27T22:36:55.501Z,100.00
2022-07-27T22:39:23.193Z,100.00
2022-07-27T22:41:50.926Z,100.00
2022-07-27T22:44:20.492Z,100.00
2022-07-27T22:46:48.551Z,100.00
2022-07-27T22:49:16.566Z,100.00
2022-07-27T22:51:50.355Z,100.00
2022-07-27T22:54:21.145Z,100.00
2022-07-27T22:56:48.995Z,100.00
2022-07-27T22:59:16.885Z,100.00
